Choose a state:
Most recent flow and stage for Georgia
(Stations highlighted in red are currently above flood stage)
USGS
station
ID
USGS station name NWS
flood
stage
(ft)
Most recent
stage
(ft)
Most recent
flow
(cfs)
Historical
peaks
(cfs)
Most recent
local
date/time
NWS
station
ID
02176930 CHATTOOGA RIVER AT BURRELLS FORD,NR PINE MTN,GA 7 1.10 127 4,120 2017-06-26 16:00:00 BURG1
02177000 CHATTOOGA RIVER NEAR CLAYTON, GA 15 1.54 367 33,300 2017-06-26 15:00:00 CYNG1
02178400 TALLULAH RIVER NEAR CLAYTON, GA 20 2.47 173 8,500 2017-06-26 15:45:00 TCLG1
02181350 TALLULAH R AT TERRORA PWRHSE, NR TALLULAH FALLS,GA   2.01 50.0   2017-06-26 15:30:00  
02181580 TALLULAH RIVER AB POWERHOUSE, NR TALLULAH FALLS,GA 36 5.06 34.2 21,000 2017-06-26 15:15:00 TFLG1
02188600 BEAVERDAM CREEK ABOVE ELBERTON, GA 9 3.12 71.5 4,100 2017-06-26 16:00:00 BVDG1
02191227 GROVE CREEK AT US 441 AND GA 15 NEAR COMMERCE, GA 15 7.07 68.2 763 2017-06-26 15:15:00 GCBG1
02191300 BROAD RIVER ABOVE CARLTON, GA 15 3.73 806 70,000 2017-06-26 15:45:00 CARG1
02191740 CLOUDS CREEK AT WATSON MILL PARK NR CARLTON, GA 38 33.62 35.5 301 2017-06-26 16:00:00 WMPG1
02191743 SOUTH FORK BROAD RIVER AT CARLTON, GA 12 2.13 331 3,830 2017-06-26 16:00:00 CAOG1
02192000 BROAD RIVER NEAR BELL, GA 21 6.54 1,850 79,400 2017-06-26 15:30:00 BELG1
02193340 KETTLE CREEK NEAR WASHINGTON, GA 14 3.34 9.25 4,150 2017-06-26 15:45:00 KETG1
02193500 LITTLE RIVER NEAR WASHINGTON, GA 19 6.20 252 15,500 2017-06-26 15:00:00 WTNG1
02195320 KIOKEE CREEK AT GA 104, NEAR EVANS, GA 19 0.40 8.80 9,260 2017-06-26 16:00:00 EVNG1
02195520 SAVANNAH RIVER NEAR EVANS, GA   14.25

 

  2017-06-26 15:00:00  
021964832 SAVANNAH RIVER ABOVE AUGUSTA CANAL NEAR BONAIR,GA   157.92 5,600   2017-06-26 15:00:00  
02196485 AUGUSTA CANAL NR AUGUSTA (UPPER)   6.16 2,600 4,820 2017-06-26 14:30:00  
02196670 SAVANNAH RIVER JEFFERSON DAVIS BR, AT AUGUSTA, GA   13.86

 

  2017-06-26 15:30:00  
02196835 BUTLER CREEK BELOW 7TH AVENUE, AT FT. GORDON, GA   1.71 6.81 510 2016-05-31 23:45:00  
02196838 BUTLER CREEK RESERVOIR AT FORT GORDON, GA   27.54

 

  2016-05-31 23:45:00  
02196999 SAVANNAH RV ABOVE NEW SAV. LOCK AND DAM   114.54

 

  2017-06-26 14:30:00  
02197000 SAVANNAH RIVER AT AUGUSTA, GA 117.5 97.39 4,790 350,000 2017-06-26 14:30:00 AUGG1
02197020 SPIRIT CREEK AT US 1, NEAR AUGUSTA, GA 12 2.77 9.42 4,070 2017-06-26 15:00:00 SPTG1
021973269 SAVANNAH RIVER NEAR WAYNESBORO, GA   7.30 5,160 24,000 2017-06-26 15:15:00  
02197500 SAVANNAH R AT BURTONS FERRY BR NR MILLHAVEN, GA 15 5.05 5,510 220,000 2017-06-26 14:45:00 BFYG1
02197598 BRUSHY CREEK AT CAMPGROUND ROAD, NEAR WRENS, GA   1.56 7.05 453 2017-06-26 15:15:00 WRNG1
02197600 BRUSHY CREEK NEAR WRENS, GA 8

 

39.0 11,400 2005-06-14 00:45:00 WRNG1
02197830 BRIER CREEK NEAR WAYNESBORO, GA 11 5.39 195 48,000 2017-06-26 15:30:00 BCWG1
02198000 BRIER CREEK AT MILLHAVEN, GA   2.45 249 64,000 2017-06-26 16:00:00  
02198100 BEAVERDAM CREEK NEAR SARDIS, GA   2.47 16.5 4,070 2017-06-26 15:00:00  
02198375 SAVANNAH RIVER NEAR ESTILL, SC   4.18 5,770 15,600 2017-06-26 14:00:00  
02198500 SAVANNAH RIVER NEAR CLYO, GA 11 4.01 5,840 270,000 2017-06-26 14:00:00 CLYG1
02198690 EBENEZER CREEK AT SPRINGFIELD, GA 17 8.71 304 8,960 2017-06-26 15:45:00 EBZG1
02198759 BEAR CREEK AT HICKORY BEND, NEAR RINCON, GA   10.44 249   2017-01-13 23:45:00  
02198810 ABERCORN CREEK NEAR SAVANNAH,GA   2.37 3,200   2017-06-26 15:45:00  
02198820 ABERCORN CREEK AT MOUTH NEAR SAVANNAH, GA   1.37

 

  2017-06-26 16:00:00  
02198840 SAVANNAH RIVER NEAR PORT WENTWORTH, GA   1.48 21,300   2017-06-26 15:45:00  
02198920 SAVANNAH RIVER AT GA 25, AT PORT WENTWORTH, GA   -0.85 54,500 2017-06-26 15:15:00  
02198950 MIDDLE RIVER AT GA 25 AT PORT WENTWORTH, GA   -0.57 13,800   2017-06-26 15:30:00  
021989715 SAVANNAH RIVER AT GARDEN CITY, GA   -1.86

 

  2017-06-26 15:45:00  
021989773 SAVANNAH RIVER AT USACE DOCK, AT SAVANNAH, GA   -1.78 70,900   2017-06-26 15:30:00  
021989784 L BACK RIVER ABOVE LUCKNOW CANAL, NR LIMEHOUSE, SC   1.40

 

  2017-06-26 15:30:00  
021989791 LITTLE BACK RIVER AT F&W DOCK, NEAR LIMEHOUSE, SC   0.21

 

  2017-06-26 15:45:00  
021989792 LITTLE BACK RIVER AT GA 25 AT PORT WENTWORTH, GA   0.10 7,810   2017-06-26 15:30:00  
0219897993 SAVANNAH RIVER AT ELBA ISLAND, NEAR SAVANNAH, GA   -2.13

 

  2017-06-26 15:30:00  
02198980 SAVANNAH RIVER AT FORT PULASKI, GA   -2.60 190,000   2017-06-26 15:15:00  
02199000 SOUTH CHANNEL (SAVANNAH RIVER) NEAR SAVANNAH, GA   -1.58

 

  2017-06-26 15:15:00  
02200120 OGEECHEE RIVER AT GA 88, NEAR GRANGE, GA 18 7.37 75.5 10,400 2017-06-26 15:15:00 GRGG1
02201000 WILLIAMSON SWAMP CREEK AT DAVISBORO, GA 10 2.51 32.8 9,200 2017-06-26 15:45:00 DAVG1
02201230 OGEECHEE RIVER AT MIDVILLE, GA 6 1.73 360 59,000 2017-06-26 15:00:00 MDVG1
02202040 OGEECHEE RIVER AT ROCKY FORD RD, NR ROCKY FORD, GA 13 3.29 365 75,000 2017-06-26 15:00:00 RFDG1
02202190 OGEECHEE RIVER AT GA 24, NEAR OLIVER, GA   8.18 798 76,000 2017-06-26 15:30:00  
02202500 OGEECHEE RIVER NEAR EDEN, GA 11 3.20 545 78,000 2017-06-26 15:15:00 EDEG1
02202600 BLACK CREEK NEAR BLITCHTON, GA 18 4.20 57.4 11,100 2017-06-26 15:15:00 BLIG1
02202680 OGEECHEE RIVER AT GA 204, NEAR ELLABELL, GA   4.97 647 80,000 2017-06-26 15:15:00  
02203000 CANOOCHEE RIVER NEAR CLAXTON, GA 11 4.21 477 20,500 2017-06-26 15:15:00 CNOG1
02203518 CANOOCHEE RIVER AT BRIDGE 38, AT FORT STEWART, GA 17 6.67 233 14,700 2017-06-26 15:30:00 FSBG1
02203536 OGEECHEE RIVER AT US 17, NEAR RICHMOND HILL, GA   3.11 7,280 110,000 2017-06-26 15:15:00  
02203557 PEACOCK CREEK AT ATLANTIC RR LINE NR MCINTOSH, GA 14 4.67 11.2 1,400 2017-06-26 15:15:00 MTHG1
022035975 HUDSON CREEK AT MERIDIAN LANDING, NEAR MERIDIAN,GA   -4.18

 

  2017-06-26 15:45:00  
02203603 SOUTH RIVER AT SPRINGDALE ROAD, AT ATLANTA, GA 17 2.64

 

2017-06-26 15:15:00 SEPG1
02203655 SOUTH RIVER AT FORREST PARK ROAD, AT ATLANTA, GA 15 3.31 17.6 3,400 2017-06-26 15:15:00 STHG1
02203700 INTRENCHMENT CREEK NEAR ATLANTA, GA 11 2.29 3.05 4,100 2017-06-26 15:15:00 INTG1
02203831 DOOLITTLE CREEK AT FLAT SHOALS RD, NR DECATUR, GA 8 1.17

 

  2017-06-26 13:00:00 DLCG1
02203863 SHOAL CREEK AT COLUMBIA DRIVE NEAR ATLANTA, GA 11 3.90 9.00 565 2017-06-26 15:15:00 SHOG1
02203873 COBBS CREEK AT RAINBOW DR, NEAR DECATUR, GA   1.95

 

  2017-06-26 15:30:00  
02203900 SOUTH RIVER AT FLAKES MILL ROAD NR ATLANTA, GA 13 2.79 83.4 12,500 2017-06-26 16:00:00 SFMG1
02203950 SNAPFINGER CREEK NEAR DECATUR, GA 12 2.74 11.1 3,800 2017-06-26 15:15:00 SFCG1
02203960 SNAPFINGER CR AT THOMPSON MILL RD NR LITHONIA, GA 16 3.41 18.9 2,990 2017-06-26 15:30:00 SFHG1
02204037 POLE BRIDGE CR AT EVANS MILL RD NEAR LITHONIA, GA 8 1.48 21.9 642 2017-06-26 15:30:00 PBCG1
02204070 SOUTH RIVER AT KLONDIKE ROAD, NEAR LITHONIA, GA 12 5.48 274 17,000 2017-06-26 15:45:00 SOUG1
02204130 HONEY CREEK AT GA 212, NEAR CONYERS, GA 9 2.60 48.2 3,090 2017-06-26 15:45:00 HONG1
02204285 PATES CREEK NEAR FLIPPEN, GA 12 1.45 41.9 4,400 2017-06-26 15:45:00 FLPG1
02204520 SOUTH RIVER AT GA 81, AT SNAPPING SHOALS, GA 12 7.63 937   2017-06-26 15:15:00 SPGG1
02205522 PEW CREEK AT PATTERSON RD, NEAR LAWRENCEVILLE, GA 11 2.97

 

5,000 2017-06-26 15:15:00 LAWG1
02205865 SWEETWATER CREEK AT CLUB DRIVE NEAR LILBURN, GA 11 3.12 21.9 3,600 2017-06-26 15:15:00 STWG1
02207120 YELLOW RIVER AT GA 124, NEAR LITHONIA, GA 15 3.43 173 16,500 2017-06-26 15:45:00 YELG1
02207130 STONE MTN CR AT SILVER HILL RD, NEAR STONE MTN, GA 9 3.02

 

  2017-06-26 15:30:00 STCG1
02207135 LITTLE STONE MTN CR NEAR STONE MOUNTAIN, GA 8 2.31 1.22   2017-06-26 15:30:00 LSMG1
02207160 STONE MOUNTAIN CREEK AT GA24 NEAR LITHONIA, GA 12 3.85 21.5 1,500 2017-06-26 15:45:00 SOCG1
02207185 NO BUSINESS CREEK AT LEE ROAD, BELOW SNELLVILLE,GA 9 3.04 7.74 1,800 2017-06-26 15:45:00 NOBG1
02207200 SWIFT CREEK NEAR LITHONIA, GA 9 1.82

 

800 2017-06-26 15:30:00 SFTG1
02207220 YELLOW RIVER AT PLEASANT HILL ROAD, NR LITHONIA,GA 13 2.15 231 22,900 2017-06-26 15:45:00 YLOG1
02207300 YELLOW RIVER AT MILSTEAD, GA   5.49

 

  2017-06-26 15:30:00  
02207335 YELLOW RIVER AT GEES MILL ROAD, NEAR MILSTEAD, GA 11 2.73 353 20,800 2017-06-26 15:30:00 MYRG1
02207385 BIG HAYNES CREEK AT LENORA ROAD, NR SNELLVILLE, GA 10 3.11 24.4 1,750 2017-06-26 15:00:00 BIGG1
02207400 BRUSHY FORK CREEK AT BEAVER ROAD, NR LOGANVILLE,GA 9 1.61 15.9 782 2017-06-26 15:00:00 LOGG1
02207414 RANDY POYNTER LAKE AT SPILLWAY, NEAR MILSTEAD, GA   734.91

 

  2017-06-26 16:00:00  
02207418 BIG HAYNES CREEK AT JACK TURNER DAM,NR MILSTEAD GA 7 2.90 101 1,900 2017-06-26 15:00:00 MBHG1
02207435 LITTLE HAYNES CREEK AT DIAL MILL RD NR MILSTEAD GA 10 4.18 55.3 2,850 2017-06-26 15:45:00 MLHG1
02207448 BIG HAYNES CREEK AT BALD ROCK ROAD, NR MILSTEAD GA 12 3.92 191   2017-06-26 15:00:00 BHCG1
02208000 YELLOW RIVER ROCKY PLAINS RD NR ROCKY PLAINS, GA 18 6.76 796 7,730 2017-06-26 15:15:00 RKYG1
02208050 ALCOVY RIVER NEAR LAWRENCEVILLE, GA 15 -0.66

 

2,200 2017-06-26 15:30:00 LWRG1
02208130 SHOAL CREEK AT PAPER MILL RD, NR LAWRENCEVILLE, GA 11 1.58

 

2,280 2017-06-26 15:30:00 LAVG1
02208150 ALCOVY RIVER AT NEW HOPE ROAD, NEAR GRAYSON, GA 9 2.83 37.0 8,630 2017-06-26 15:45:00 ALCG1
02208450 ALCOVY RIVER ABOVE COVINGTON, GA 12 5.08 335 7,620 2017-06-26 16:00:00 ACYG1
02208485 CORNISH CREEK AT LOWER JERSEY RD, NR COVINGTON, GA 11 2.26 18.5 568 2017-06-26 15:45:00 CCJG1
02208487 LITTLE CORNISH CR (COUNTY ROAD 95) NR OXFORD, GA 9 0.58 3.63 161 2017-06-26 15:30:00 LCBG1
02208493 CORNISH CREEK AT HAZELBRAND RD NR COVINGTON, GA 14 7.18 22.9 710 2017-06-26 15:00:00 CNCG1
02209000 ALCOVY RIVER BELOW COVINGTON, GA 11 4.86 686 12,400 2017-06-26 15:45:00 HPTG1
02209360 EAST BEAR CREEK AT POPLAR ROAD, NR MANSFIELD, GA 9 0.90 3.00 915 2017-06-26 15:00:00 EBCG1
02210500 OCMULGEE RIVER NEAR JACKSON, GA 19 5.49 2,720 69,000 2017-06-26 15:30:00 JACG1
02211375 CABIN CREEK AT NORTH SECOND STREET, NR GRIFFIN, GA 13 3.63 3.86 2,250 2017-06-26 15:00:00 GFNG1
02211800 TOWALIGA RIVER AT GA 83 NEAR JULIETTE, GA 16 3.33 375 9,680 2017-06-26 15:45:00 TOWG1
02212600 FALLING CREEK NEAR JULIETTE, GA 13 1.33 8.79 7,920 2017-06-26 15:45:00 FALG1
02212735 OCMULGEE RIVER AT GA 18, AT DAMES FERRY, GA 16 5.29 4,040 80,000 2017-06-26 15:00:00 DFYG1
02213000 OCMULGEE RIVER AT MACON, GA 18 13.73 6,520 107,000 2017-06-26 15:30:00 MACG1
02213050 WALNUT CREEK NEAR GRAY, GA  

 

10.0 15,500 1994-04-27 00:45:00  
02213500 TOBESOFKEE CREEK NEAR MACON, GA 20 1.95 5.79 54,000 2017-06-26 15:45:00 TOBG1
02214075 ECHECONNEE CREEK AT HOUSTON RD, NEAR BYRON, GA 15 7.19 123 7,250 2017-06-26 15:15:00 BYNG1
02214590 BIG INDIAN CREEK AT US 341, NEAR CLINCHFIELD, GA 30 14.99 79.5 2,220 2017-06-26 15:15:00 CLFG1
02215000 OCMULGEE RIVER AT US 341, AT HAWKINSVILLE, GA 20 8.25 5,660 100,000 2017-06-26 15:45:00 HAWG1
02215100 TUCSAWHATCHEE CREEK NEAR HAWKINSVILLE, GA 11 2.00 76.3 11,900 2017-06-26 15:45:00 TSCG1
02215260 OCMULGEE RIVER AT ABBEVILLE, GA 12 6.43 3,960 100,000 2017-06-26 15:45:00 ABBG1
02215500 OCMULGEE RIVER AT LUMBER CITY, GA 15 3.65 3,140 98,400 2017-06-26 15:45:00 LBRG1
02215900 LITTLE OCMULGEE RIVER AT GA 149, AT SCOTLAND, GA 12 1.90 18.2 4,830 2017-06-26 15:15:00 SCTG1
02216180 TURNPIKE CREEK NEAR MCRAE, GA 10 4.77 1.09 4,980 2017-06-26 15:00:00 MCRG1
02217274 WHEELER CREEK AT BILL CHEEK ROAD, NEAR AUBURN, GA 6 1.24 1.16 928 2017-06-26 15:15:00 WLRG1
02217297 MULBERRY CREEK NEAR WINDER, GA 17 1.97 83.1 3,230 2017-06-26 15:45:00 WNRG1
02217475 MIDDLE OCONEE RIVER NEAR ARCADE, GA 16 3.09 271 13,800 2017-06-26 15:45:00 ACDG1
02217500 MIDDLE OCONEE RIVER NEAR ATHENS, GA 18 1.78 363 19,600 2017-06-26 15:30:00 MOCG1
02217615 NORTH OCONEE R AT WOODBRIDGE RD, NEAR COMMERCE, GA 15 2.08 71.9 2,940 2017-06-26 15:15:00 CMRG1
02217643 PARKS CREEK AT LYLE FIELD RD NR JEFFERSON, GA 9 2.27 1.63 422 2017-06-26 15:00:00 PACG1
02217770 NORTH OCONEE RIVER AT COLLEGE ST, AT ATHENS, GA 19 5.45 382 14,500 2017-06-26 15:00:00 NOCG1
02218300 OCONEE RIVER NEAR PENFIELD, GA 13 5.73 1,330 61,000 2017-06-26 16:00:00 PNFG1
02218565 APALACHEE RIVER AT FENCE ROAD, NEAR DACULA, GA 8 0.38 5.57 2,190 2017-06-26 15:00:00 DACG1
02219000 APALACHEE RIVER NEAR BOSTWICK, GA 9 2.39 283 11,200 2017-06-26 15:45:00 BWKG1
02220788 LITTLE RIVER AT NEWBORN RD NEAR NEWBORN, GA 12 4.36 40.8 1,530 2017-06-26 15:15:00 NWBG1
02220900 LITTLE RIVER NEAR EATONTON, GA   5.64 393 15,000 2017-06-26 15:30:00 EANG1
02221525 MURDER CREEK BELOW EATONTON, GA 10 1.78 74.9 9,630 2017-06-26 15:30:00 MTLG1
02223000 OCONEE RIVER AT MILLEDGEVILLE, GA 22 8.28 1,180 140,000 2017-06-26 15:30:00 MLGG1
02223056 OCONEE RIVER AT AVANT MINE, NEAR OCONEE, GA 18 9.75 5,480 11,200 2017-06-26 15:45:00 OCOG1
02223110 BUFFALO CREEK AT GA 272, NEAR OCONEE, GA 15 6.83 32.9 7,540 2017-06-26 15:30:00 BFOG1
02223190 COMMISSIONER CREEK AT US 441, AT MCINTYRE, GA 13 8.61 60.2 13,000 2017-06-26 15:30:00 MITG1
02223248 OCONEE RIVER NEAR OCONEE, GA 17 11.26 6,560 96,900 2017-06-26 15:45:00 OCNG1
02223360 BIG SANDY CREEK AT US 441, NEAR IRWINTON, GA 10 3.46 25.8 4,320 2017-06-26 15:30:00 IWTG1
02223382 OCONEE RIVER NEAR DUBLIN, GA  

 

2,820 1996-10-03 00:45:00  
02223500 OCONEE RIVER AT DUBLIN, GA 21 11.02 6,910 96,700 2017-06-26 15:45:00 DBNG1
02224500 OCONEE RIVER NEAR MOUNT VERNON, GA 16 9.04 7,040 96,000 2017-06-26 15:00:00 MTVG1
02224940 ALTAMAHA RIVER AT US 221, NR CHARLOTTEVILLE, GA 13 6.01 9,100 210,000 2017-06-26 15:45:00 CHRG1
02225000 ALTAMAHA RIVER NEAR BAXLEY, GA 74.5 7.25 9,200 230,000 2017-06-26 15:45:00 BAXG1
02225270 OHOOPEE RIVER AT GA 297, NEAR SWAINSBORO, GA 18 9.59 123 5,460 2017-06-26 15:30:00 SWOG1
02225500 OHOOPEE RIVER NEAR REIDSVILLE, GA 11 4.76 429 47,000 2017-06-26 15:00:00 REDG1
02226000 ALTAMAHA RIVER AT DOCTORTOWN, GA 12 7.61 7,800 300,000 2017-06-26 15:00:00 DCTG1
02226160 ALTAMAHA RIVER NEAR EVERETT CITY, GA 13 7.38 6,610 300,000 2017-06-26 15:15:00 EVRG1
022261794 BRUNSWICK RIVER AT BRUNSWICK, GA 5.5 5.71

 

  2016-10-11 16:15:00 SBNG1
02226180 BRUNSWICK RIVER AT ST. SIMONS ISLAND, GA 5 -3.75

 

  2017-06-26 15:45:00 BRNG1
02226362 SATILLA RIVER AT GA 158, NEAR WAYCROSS, GA 14 3.37 47.8 34,500 2017-06-26 15:30:00 TMOG1
02226500 SATILLA RIVER NEAR WAYCROSS, GA 16 5.10 66.4 42,100 2017-06-26 15:45:00 AYSG1
02227270 ALABAHA RIVER AT GA 203, NEAR BLACKSHEAR, GA 9 1.54 3.47 21,000 2017-06-26 15:30:00 ABAG1
02227500 LITTLE SATILLA RIVER NEAR OFFERMAN, GA 9 2.48 12.8 38,000 2017-06-26 15:45:00 OFFG1
02228000 SATILLA RIVER AT ATKINSON, GA 13 4.56 358 110,000 2017-06-26 15:45:00 ATKG1
02228070 SATILLA RIVER AT US 17, AT WOODBINE, GA 4 1.16 23,600 2017-06-26 15:00:00 SRWG1
02228295 CUMBERLAND SOUND AT SEA CAMP DOCK, NR ST MARYS, GA 5 -1.44

 

  2017-06-26 15:00:00 CSAG1
02231175 ST MARYS RIVER AT FERRY LANDING NEAR FOLKSTON, GA 10 2.03

 

  2017-06-26 15:15:00 SMTG1
02231254 ST MARY'S RIVER AT I-95, NEAR KINGSLAND, GA 3.5 0.98 17,300 25,800 2017-06-26 15:15:00 KLNG1
02314495 SUWANNEE RIVER ABOVE FARGO, GA   6.68

 

13,200 2017-06-26 15:00:00  
02314500 SUWANNEE RIVER AT US 441, AT FARGO, GA 104 4.17 341 13,800 2017-06-26 15:00:00 FGOG1
02315920 ALAPAHA RIVER AT GA 125/32 NEAR IRWINVILLE, GA 272 2.55 155 8,860 2017-06-26 15:30:00 IVLG1
02316000 ALAPAHA RIVER NEAR ALAPAHA, GA 223 5.57 235 16,000 2017-06-26 15:00:00 ALAG1
02317500 ALAPAHA RIVER AT STATENVILLE, GA 100 2.53 255 33,400 2017-06-26 15:45:00 STNG1
023177483 WITHLACOOCHEE RIVER AT MCMILLAN RD,NEAR BEMISS, GA 135 3.88 137 37,500 2017-06-26 15:30:00 VDSG1
02317755 WITHLACOOCHEE RIVER AT US 41 NEAR VALDOSTA, GA 125 6.01

 

38,000 2017-06-26 15:30:00 VDRG1
02317797 LITTLE RIVER AT UPPER TY TY ROAD, NEAR TIFTON, GA   2.18 221 4,400 2017-06-26 15:15:00 TWCG1
02318000 LITTLE RIVER NEAR ADEL, GA 189 6.00 703 38,800 2017-06-26 15:00:00 ADLG1
02318380 LITTLE RIVER AT GA 122, NEAR HAHIRA, GA 151 3.99 25.3 45,000 2017-06-26 15:15:00 HRAG1
02318500 WITHLACOOCHEE RIVER AT US 84, NEAR QUITMAN, GA 104 4.42 582 62,000 2017-06-26 15:00:00 QUTG1
02318700 OKAPILCO CREEK AT GA 333, NEAR QUITMAN, GA 119 9.21 402 18,500 2017-06-26 15:45:00 OKAG1
02327355 OCHLOCKONEE RIVER AT GA 188, NEAR COOLIDGE, GA 13 4.98 200 35,000 2017-06-26 15:30:00 CLDG1
02327500 OCHLOCKONEE RIVER NEAR THOMASVILLE, GA 15 6.38 383 66,000 2017-06-26 15:45:00 TMLG1
02329342 LITTLE ATTAPULGUS CREEK AT ATTAPULGUS, GA   1.44 9.31 175 2017-06-26 16:00:00  
02330450 CHATTAHOOCHEE RIVER AT HELEN, GA 6 0.61 73.6 10,500 2017-06-26 15:00:00 HDCG1
02331000 CHATTAHOOCHEE RIVER NEAR LEAF, GA   1.70 186 22,500 2017-06-26 15:45:00  
023312495 SOQUE RIVER AT GA 197, NEAR CLARKESVILLE, GA 12 3.51 118 4,730 2017-06-26 15:00:00 CSQG1
02331600 CHATTAHOOCHEE RIVER NEAR CORNELIA, GA 14 0.73 363 27,000 2017-06-26 15:45:00 DCNG1
02333500 CHESTATEE RIVER NEAR DAHLONEGA, GA 19 1.37 251 22,700 2017-06-26 15:45:00 DGAG1
02334400 LAKE SIDNEY LANIER NEAR BUFORD, GA   1064.86

 

  2017-06-26 15:15:00 CMMG1
02334401 CHATTAHOOCHEE RIVER (BUFORD DAM) NR BUFORD, GA   912.15

 

  2017-06-26 15:15:00  
02334430 CHATTAHOOCHEE RIVER AT BUFORD DAM, NEAR BUFORD, GA 12 -0.63 517 12,800 2017-06-26 15:45:00 BUFG1
02334480 RICHLAND CREEK AT SUWANEE DAM ROAD, NEAR BUFORD,GA 10 0.45 6.50 3,090 2017-06-26 15:30:00 RLCG1
02334578 LEVEL CREEK AT SUWANEE DAM ROAD, NEAR SUWANEE, GA 9 3.51 9.12 2,800 2017-06-26 15:15:00 SWAG1
02334620 DICK CREEK AT OLD ATLANTA RD, NEAR SUWANEE, GA 10 0.83 7.52 1,680 2017-06-26 15:00:00 DICG1
02334653 CHATTAHOOCHEE R 0.76 MI US MCGINNIS FY SUWANEE GA 22 1.63 670 10,900 2017-06-26 15:30:00 WSWG1
02334885 SUWANEE CREEK AT SUWANEE, GA 8 1.11 33.1 7,870 2017-06-26 15:15:00 SWEG1
02335000 CHATTAHOOCHEE RIVER NEAR NORCROSS, GA 12 1.61 756 55,000 2017-06-26 15:15:00 NCRG1
02335078 JOHNS CREEK AT BUICE ROAD, NEAR WARSAW, GA  

 

34.0 1,620 2006-01-18 23:45:00  
02335350 CROOKED CREEK NEAR NORCROSS, GA 11 3.73 3.27 2,740 2017-06-26 16:00:00 CRKG1
02335450 CHATTAHOOCHEE RIVER ABOVE ROSWELL, GA 9 2.71 615 21,100 2017-06-26 15:00:00 RWLG1
02335580 BIG CREEK AT GA 9, NEAR CUMMING, GA 6 0.89 79.0 4,800 2017-06-26 15:45:00 CMGG1
02335700 BIG CREEK NEAR ALPHARETTA, GA 7 2.85 75.9 6,100 2017-06-26 15:45:00 APHG1
02335757 BIG CREEK BELOW HOG WALLOW CREEK AT ROSWELL, GA 10 2.97 94.5 6,240 2017-06-26 15:15:00 RWSG1
02335790 WILLEO CREEK AT GA 120, NEAR ROSWELL, GA 12 1.14 9.12 6,200 2017-06-26 15:45:00 WLOG1
02335810 CHATTAHOOCHEE RIVER AT MORGAN FALLS DAM, GA   864.99

 

  2017-06-26 15:15:00  
02335815 CHATTAHOOCHEE RIVER BELOW MORGAN FALLS DAM, GA 821 811.28 992 35,500 2017-06-26 15:45:00 MGFG1
023358685 SEWELL MILL CREEK AT GA 120, NEAR MARIETTA, GA 11 1.56 10.4 4,570 2017-06-26 15:30:00 SMCG1
02335870 SOPE CREEK NEAR MARIETTA, GA 12 1.40 25.4 9,500 2017-06-26 15:45:00 MARG1
02335880 CHATT R AT POWERS FY & I-285 NR ATLANTA, GA 13 3.73

 

63,000 2017-06-26 15:30:00 VNPG1
02335910 ROTTENWOOD CR AT INTERSTATE N PKWY, NR SMYRNA, GA 14 2.30 8.43 4,500 2017-06-26 15:00:00 SMAG1
02335990 CHATTAHOOCHEE RIVER AT US 41, AT ATLANTA, GA 14 4.38

 

28,900 2017-06-26 15:45:00 VIXG1
02336000 CHATTAHOOCHEE RIVER AT ATLANTA, GA 14 2.94 1,160 64,000 2017-06-26 15:45:00 VING1
02336030 N.F. PEACHTREE CREEK AT GRAVES RD, NR DORAVILLE,GA 12 1.58 0.40 2,850 2017-06-26 15:00:00 NFPG1
02336120 N.F. PEACHTREE CREEK, BUFORD HWY, NEAR ATLANTA, GA 13 4.04 18.3 6,140 2017-06-26 15:15:00 NPBG1
02336152 SOUTH FORK PEACHTREE AT CASA RD, NR CLARKSTON, GA 10 3.21 2.80 1,470 2017-06-26 15:15:00 SFPG1
023362075 BURNT FORK CREEK AT MONTREAL RD, NEAR TUCKER, GA   1.11

 

  2017-06-26 15:45:00  
023362095 BURNT FORK CR AT MILLWOOD WAY NEAR CLARKSTON, GA 9 1.34 1.82 1,020 2017-06-26 15:00:00 BFCG1
02336240 S.F. PEACHTREE CREEK JOHNSON RD, NEAR ATLANTA, GA 13 3.61 18.1 4,900 2017-06-26 15:15:00 SPJG1
02336300 PEACHTREE CREEK AT ATLANTA, GA 17 2.86 74.8 21,000 2017-06-26 16:00:00 AANG1
02336313 WOODALL CREEK AT DEFOORS FERRY RD, AT ATLANTA, GA 15 0.53 0.13 2017-06-26 15:45:00 WDCG1
02336340 NANCY CREEK AT JOHNSON FERRY RD, AT CHAMBLEE, GA 16 4.59 12.4 4,200 2017-06-26 15:30:00 NCDG1
02336360 NANCY CREEK AT RICKENBACKER DRIVE, AT ATLANTA, GA 11 0.99 32.0 4,500 2017-06-26 15:15:00 NCKG1
02336410 NANCY CREEK AT WEST WESLEY ROAD, AT ATLANTA, GA 12 1.92 26.1 6,440 2017-06-26 15:15:00 NANG1
02336490 CHATTAHOOCHEE RIVER AT GA 280, NEAR ATLANTA, GA 24 4.45 1,210 42,300 2017-06-26 15:00:00 CHAG1
02336517 PROCTOR CREEK AT HORTENSE WAY, AT ATLANTA, GA 12 1.22 3.27 4,200 2017-06-26 15:15:00 PCTG1
023365218 PROCTOR CREEK TRIB AT SPRING RD, AT ATLANTA, GA   4.35

 

  2017-06-26 15:15:00  
02336526 PROCTOR CREEK AT JACKSON PARKWAY, AT ATLANTA, GA 13 3.30 8.27 8,000 2017-06-26 15:15:00 PRCG1
02336635 NICKAJACK CREEK AT US 78/278, NEAR MABLETON, GA 10 2.11 23.3 7,500 2017-06-26 15:00:00 NICG1
02336728 UTOY CREEK AT GREAT SOUTHWEST PKWY NR ATLANTA, GA 18 2.92 19.6 1,240 2017-06-26 15:15:00 UTYG1
02336840 SWEETWATER CREEK,BROWNSVILLE RD,POWDER SPRINGS,GA 13 4.13 72.6 30,000 2017-06-26 15:45:00 PDSG1
02336870 POWDER SPRINGS CREEK NEAR POWDER SPRINGS, GA 11 1.71 18.3 8,940 2017-06-26 15:45:00 POWG1
02336910 SWEETWATER CR 0.05 MI US RR BRIDGE AT AUSTELL, GA 19 6.27 135 2,970 2017-06-26 15:45:00 NATG1
02336968 NOSES CREEK AT POWDER SPRINGS RD,POWDER SPRINGS,GA 11 2.64 44.6 3,000 2017-06-26 15:30:00 NOSG1
02336986 OLLEY CREEK AT CLAY ROAD, NEAR AUSTELL, GA 12 2.22 14.5 638 2017-06-26 15:45:00 OLYG1
02337000 SWEETWATER CREEK NEAR AUSTELL, GA 10 2.08 238 31,500 2017-06-26 15:45:00 AUSG1
02337040 SWEETWATER CREEK BELOW AUSTELL, GA   1.95 268 2017-06-26 15:45:00  
02337170 CHATTAHOOCHEE RIVER NEAR FAIRBURN, GA   1.05 1,790 75,000 2017-06-26 15:30:00 FBNG1
02337410 DOG RIVER AT GA 5, NEAR FAIRPLAY, GA 13 3.67 61.3 59,900 2017-06-26 15:15:00 DOGG1
02337498 SNAKE CRK DS SNAKE CRK RESERVIOR NR WHITESBURG, GA 13 4.06 46.3 1,500 2017-06-26 15:00:00 WHGG1
02337500 SNAKE CREEK NEAR WHITESBURG, GA 12 2.45 68.5 13,500 2017-06-26 15:45:00 SNKG1
02338000 CHATTAHOOCHEE RIVER NEAR WHITESBURG, GA 17 4.19 2,660 95,000 2017-06-26 15:15:00 WHTG1
02338500 CHATTAHOOCHEE RIVER AT GA 100, AT FRANKLIN, GA 23 12.95 3,300 105,000 2017-06-26 15:00:00 FRNG1
02338523 HILLABAHATCHEE CREEK AT THAXTON RD, NR FRANKLIN,GA 12 2.15 20.7 2,720 2017-06-26 15:45:00 HILG1
02338660 NEW RIVER AT GA 100, NEAR CORINTH, GA   4.54 124 10,000 2017-06-26 16:00:00 NRVG1
02338840 YELLOWJACKET CREEK-HAMMETT RD, BLW HOGANSVILLE, GA 8 2.25 109 9,830 2017-06-26 15:30:00 YJCG1
02339400 WEST POINT LAKE NEAR WEST POINT, GA 641 635.52

 

  2017-06-26 15:15:00 WETG1
02339402 CHATTAHOOCHEE RIVER BELOW WEST POINT DAM, GA   561.58

 

  2017-06-26 15:15:00  
02339500 CHATTAHOOCHEE RIVER AT WEST POINT, GA 17 5.62 7,460 134,000 2017-06-26 15:00:00 WTPG1
02341460 CHATTAHOOCHEE RIVER AT 14TH ST, AT COLUMBUS, GA 27 19.35 4,970 95,200 2017-06-26 15:00:00 CBUG1
02341505 CHATTAHOOCHEE RIVER AT US 280, NEAR COLUMBUS, GA   6.21 *** 150,000 2014-07-01 23:45:00 CMUG1
02341725 PINE KNOT CREEK NEAR EELBEECK, GA   1.18 61.3 1,120 2012-09-29 23:45:00  
02341750 RANDALL CREEK NEAR UPATOI, GA   3.17 2.80 564 2012-05-15 23:45:00  
02341800 UPATOI CREEK NEAR COLUMBUS, GA   4.43 297 46,300 2017-06-26 15:30:00 UPAG1
02341910 OCHILLEE CREEK AT OCHILLEE, GA   1.39 187 1,720 2012-05-15 00:45:00  
02342850 HANNAHATCHEE CREEK AT UNION ROAD, AT UNION, GA 16 1.61 46.5 9,280 2017-06-26 15:45:00 UNIG1
02342881 CHATTAHOOCHEE RIVER AT SPUR 39, NEAR OMAHA, GA   189.65 4,900 150,000 2017-06-26 15:30:00  
02343225 PATAULA CREEK NEAR GEORGETOWN, GA   4.18 340 65,000 2017-06-26 15:45:00 MRSG1
02343240 WALTER F. GEORGE RESERVOIR NEAR FORT GAINES, GA   189.78

 

  2017-06-26 15:15:00 FOGG1
02343241 CHATTAHOOCHEE R BELOW WFG DAM AB FT. GAINES, GA 134 108.86

 

  2017-06-26 15:15:00 FOGG1
023432415 CHATTAHOOCHEE R .36 MI DS WFG DAM NR FT GAINES, GA   109.00 32,200 156,000 2017-06-26 15:30:00  
02343801 CHATTAHOOCHEE RIVER NEAR COLUMBIA, AL 106 77.72

 

202,000 2017-06-26 15:00:00 COLA1
02343805 CHATTAHOOCHEE RIVER AT MILE 46 NEAR COLUMBIA, ALA   78.43 12,400 160,000 2017-06-26 15:45:00  
02343940 SAWHATCHEE CREEK AT CEDAR SPRINGS, GA   3.63 74.6 5,380 2017-06-26 15:15:00 CEDG1
02344280 CAMP CREEK AT HELMER ROAD, NEAR FAYETTEVILLE, GA 7 1.43 17.3 2017-06-26 15:15:00 CCKG1
02344327 MORNING CRK AT WESTBRIDGE RD, NR FAYETTEVILLE, GA 14 4.81 29.4 2017-06-26 15:15:00 MCFG1
02344350 FLINT RIVER NEAR LOVEJOY, GA 12 4.39 291 19,000 2017-06-26 15:45:00 LOVG1
02344396 FLINT RIVER AT WOOLSEY ROAD, NEAR WOOLSEY, GA 48 41.43 606 9,780 2017-06-26 15:45:00 WSEG1
02344423 LAKE HORTON (HEADWATER) NEAR FAYETTEVILLE, GA   778.68

 

  2017-06-26 15:15:00  
02344424 LAKE HORTON (TAILRACE) NEAR FAYETTEVILLE, GA   746.31 2.83   2017-06-26 15:15:00  
02344478 SHOAL CREEK AT SHOAL CREEK ROAD, NEAR GRIFFIN, GA 7 0.77 11.0 1,520 2017-06-26 15:45:00 SHLG1
02344500 FLINT RIVER NEAR GRIFFIN, GA 12 7.71 931 31,500 2017-06-26 15:45:00 GRFG1
02344605 LINE CREEK BELOW GA 54, NEAR PEACHTREE CITY, GA 12 4.37 66.0 2,550 2017-06-26 15:00:00 PHCG1
02344620 SHOAL CREEK AT GA54, NEAR SHARPSBURG, GA 10 2.33 25.2 648 2017-06-26 15:30:00 SHPG1
02344630 LINE CREEK BLW LAKE MCINTOSH, NR PEACHTREE CITY,GA 10 3.17 94.6   2017-06-26 15:00:00 LMCG1
02344650 LAKE KEDRON NEAR PEACHTREE CITY, GA   835.39

 

  2017-06-26 15:15:00  
02344655 FLAT CR DS OF LAKE KEDRON, NR PEACHTREE CITY, GA 10 2.80 15.6 208 2017-06-26 15:15:00 LKTG1
02344671 LAKE PEACHTREE (HEADWATER) AT PEACHTREE CITY, GA   784.60

 

  2017-06-26 15:15:00  
02344673 FLAT CREEK (DS OF LAKE) AT PEACHTREE CITY, GA 10 2.76

 

106 2017-06-26 15:15:00 LPTG1
02344700 LINE CREEK NEAR SENOIA, GA 10 3.79 158 28,400 2017-06-26 15:45:00 LING1
02344724 WHITEWATER CREEK AT EASTIN RD, NR FAYETTEVILLE, GA 10 3.04 19.8 2017-06-26 16:00:00 WCEG1
02344736 WHITEWATER CR AT SHERWOOD RD, NR FAYETTEVILLE, GA 12 5.00 52.2 2017-06-26 15:15:00 WCSG1
02344748 WHITEWATER CR (DS STARRS MILL DAM)FAYETTEVILLE, GA 10 2.39 115 2017-06-26 15:15:00 SMFG1
02344872 FLINT RIVER BELOW BIG BRANCH, NEAR MOLENA, GA 28 9.04 1,640 30,000 2017-06-26 15:00:00 MOLG1
02346180 FLINT RIVER NEAR THOMASTON, GA 11 5.00

 

62,000 2017-06-26 15:15:00 TMSG1
02346310 POTATO CREEK AT COUNTY LINE RD, NR ORCHARD HILL,GA 11 5.36 8.43 1,810 2017-06-26 15:15:00 POTG1
02347500 FLINT RIVER AT US 19, NEAR CARSONVILLE, GA 18 4.90 2,470 100,000 2017-06-26 15:45:00 CLUG1
02349605 FLINT RIVER AT GA 26, NEAR MONTEZUMA, GA 20 4.45 2,940 136,000 2017-06-26 15:15:00 MNTG1
02349900 TURKEY CREEK AT BYROMVILLE, GA 10 5.04 4.80 5,820 2017-06-26 15:45:00 BVLG1
02350512 FLINT RIVER AT GA 32, NEAR OAKFIELD, GA 23 5.70 3,750 112,000 2017-06-26 15:45:00 OKFG1
02350600 KINCHAFOONEE CREEK AT PRESTON, GA 7 2.55 114 14,500 2017-06-26 15:00:00 PRSG1
02350900 KINCHAFOONEE CREEK AT PINEWOOD ROAD, NR DAWSON, GA 13 4.89 435 29,500 2017-06-26 15:45:00 DSNG1
02351500 MUCKALEE CREEK NEAR AMERICUS, GA 10 2.63 73.5 33,500 2017-06-26 15:45:00 MUCG1
02351890 MUCKALEE CREEK AT GA 195, NEAR LEESBURG, GA 13 6.09 315 64,400 2017-06-26 15:45:00 MCKG1
02352500 FLINT RIVER AT ALBANY, GA 26 3.90 2,690 120,000 2017-06-26 15:45:00 ABNG1
02353000 FLINT RIVER AT NEWTON, GA 24 7.08 5,020 100,000 2017-06-26 15:45:00 NEWG1
02353265 ICHAWAYNOCHAWAY CREEK AT GA 37, NEAR MORGAN, GA   7.26 197 10,000 2017-06-26 15:00:00 MGNG1
02353400 PACHITLA CREEK NEAR EDISON, GA 7.8 3.00 108 43,000 2017-06-26 15:45:00 PCHG1
02353500 ICHAWAYNOCHAWAY CREEK AT MILFORD, GA 11 1.40 435 53,000 2017-06-26 15:00:00 MLFG1
02354350 CHICKASAWHATCHEE CREEK NEAR ALBANY, GA   2.36 62.9 349 2017-06-26 15:45:00  
02354475 SPRING CREEK NEAR LEARY, GA   2.40 11.2 55.0 2017-06-26 15:00:00  
02354500 CHICKASAWHATCHEE CREEK AT ELMODEL, GA   0.91 135 16,000 2017-06-26 15:15:00 ELMG1
02354800 ICHAWAYNOCHAWAY CREEK NEAR ELMODEL, GA 18 5.02 616 29,200 2017-06-26 15:00:00 EMOG1
02355350 ICHAWAYNOCHAWAY CREEK BELOW NEWTON, GA 17 3.71 698 31,000 2017-06-26 15:30:00 ICHG1
02355662 FLINT RIVER AT RIVERVIEW PLANTATION, NR HOPEFUL,GA 30 7.60 6,080 64,600 2017-06-26 15:00:00 HOPG1
02356000 FLINT RIVER AT BAINBRIDGE, GA 25 19.32 6,090 108,000 2017-06-26 15:45:00 BGEG1
02356638 SPRING CREEK APPROX .25 MI US US27 NR COLQUITT, GA 10 4.64 100 2017-06-26 15:30:00 CQUG1
02356980 AYCOCKS CREEK NEAR BOYKIN, GA  

 

0.00 1,260 1995-10-01 00:45:00  
02357000 SPRING CREEK NEAR IRON CITY, GA 16 4.95 381 34,500 2017-06-26 15:00:00 IRCG1
02357150 SPRING CREEK NEAR REYNOLDSVILLE, GA   77.31 796   2017-06-26 15:30:00 REYG1
02357500 LAKE SEMINOLE NEAR CHATTAHOOCHEE, FL   76.92

 

  2017-06-26 15:45:00  
02357700 APALACHICOLA RIVER BL WOODRUFF DAM, NR SNEADS, FL 66 46.21

 

  2017-06-26 15:45:00 WDRF1
02379500 CARTECAY RIVER NEAR ELLIJAY, GA 7 2.08 272 20,000 2017-06-26 15:30:00 EECG1
02380500 COOSAWATTEE RIVER NEAR ELLIJAY, GA 8 2.06 488 25,000 2017-06-26 15:45:00 ELIG1
02381090 MOUNTAINTOWN CREEK AT GA 282, NEAR ELLIJAY, GA 12 3.15 84.0 2,530 2017-06-26 15:15:00 MNCG1
02381400 CARTERS LAKE NEAR CARTERS, GA   1073.09

 

  2017-06-26 15:15:00 CTRG1
02381401 CARTERS LAKE TAILRACE NEAR CARTERS, GA   681.18

 

  2017-06-26 15:15:00  
02381600 FAUSETT CREEK NEAR TALKING ROCK, GA 10 1.57 17.5 3,160 2017-06-26 15:45:00 FCTG1
02381950 SCARECORN CREEK ABOVE HINTON, GA  

 

8.10 333 1991-01-16 23:45:00  
02382000 SCARECORN CREEK AT HINTON, GA  

 

37.0 4,000 1991-04-02 23:45:00  
02382200 TALKING ROCK CREEK NEAR HINTON, GA 10 1.61 159 19,000 2017-06-26 15:45:00 TKRG1
02382400 CARTERS RE-REGULATION LAKE NEAR CARTERS, GA   30.51

 

2017-06-26 15:15:00  
02382500 COOSAWATTEE RIVER AT CARTERS, GA 20 4.79 697 57,000 2017-06-26 15:30:00 CATG1
02383500 COOSAWATTEE RIVER NEAR PINE CHAPEL, GA 25 5.10 763 40,200 2017-06-26 16:00:00 RDBG1
02383520 COOSAWATTEE RIVER AT PINE CHAPEL, GA 22 2.28

 

40,200 2017-06-26 16:00:00 PING1
02384500 CONASAUGA RIVER AT GA 286, NEAR ETON, GA 12 3.98 255 33,200 2017-06-26 16:00:00 ETNG1
02384540 MILL CREEK NEAR CRANDALL, GA 8 1.52 7.51 2,240 2017-06-26 15:45:00 CNDG1
02385170 COAHULLA CREEK AT KEITHS MILL ROAD, NEAR DALTON,GA 16 8.16 111 1,860 2017-06-26 15:45:00 CHCG1
02385500 MILL CREEK AT DALTON, GA 11 4.47 35.5 5,680 2017-06-26 16:00:00 DLNG1
02385800 HOLLY CREEK NEAR CHATSWORTH, GA   1.61 40.1 20,600 2017-06-26 16:00:00 HOLG1
02387000 CONASAUGA RIVER AT TILTON, GA 18 3.57 550 40,000 2017-06-26 16:00:00 TLNG1
02387010 CONASAUGA RIVER AT SLOAN BRIDGE, BELOW DALTON, GA 18 1.34

 

36,800 2017-06-26 16:00:00 DLBG1
02387500 OOSTANAULA RIVER AT RESACA, GA 22 4.06 1,510 68,600 2017-06-26 15:15:00 RSCG1
02387520 OOSTANAULA RIVER AT CALHOUN, GA 21 4.72

 

45,500 2017-06-26 15:15:00 CALG1
02387600 OOTHKALOOGA CREEK AT GA 53 SPUR, AT CALHOUN, GA 18 7.23 40.8 2,790 2017-06-26 16:00:00 OTKG1
02388320 HEATH CREEK NEAR ARMUCHEE, GA 8 1.27 3.46 1,240 2017-06-26 15:45:00 ARMG1
02388350 ARMUCHEE CREEK AT OLD DALTON ROAD, NEAR ROME, GA 19 4.40 116 10,200 2017-06-26 15:45:00 ARCG1
02388500 OOSTANAULA RIVER NEAR ROME, GA 30 6.97 1,810 70,000 2017-06-26 15:45:00 RGAG1
02388525 OOSTANAULA RIVER AT US 27, AT ROME, GA 25 5.58

 

  2017-06-26 15:45:00 RTMG1
02388900 ETOWAH RIVER NEAR DAHLONEGA, GA   3.63 260 9,680 2014-04-23 23:45:00  
02388975 ETOWAH RIVER AT GA 136, NEAR LANDDRUM, GA 14 2.23 139 4,800 2017-06-26 15:45:00 LANG1
02389150 ETOWAH RIVER AT GA 9, NEAR DAWSONVILLE, GA 13 4.27 163 6,100 2017-06-26 15:00:00 DWSG1
02390000 AMICALOLA CREEK NEAR DAWSONVILLE, GA. 10 0.82 173 7,450 2017-06-26 15:15:00 DONG1
02390050 ETOWAH RIVER AT KELLY BRIDGE ROAD, NEAR MATT, GA 19 1.75 408 7,590 2017-06-26 16:00:00 BRTG1
02390140 SETTINGDOWN CREEK NEAR BALL GROUND, GA 13 1.88 49.7 1,200 2017-06-26 15:15:00 FREG1
02391540 SHARP MTN CREEK AT OLD GA 5, BELOW BALL GROUND, GA 18 3.61 65.3 1,600 2017-06-26 15:15:00 BALG1
02391840 HICKORY LOG CREEK NEAR CANTON, GA 8 1.00 8.18 550 2017-06-26 15:00:00 HLCG1
02391860 ETOWAH RIVER DOWNSTREAM OF I-575, AT CANTON, GA 17 3.70 758 15,400 2017-06-26 15:45:00 ECTG1
02392000 ETOWAH RIVER AT CANTON, GA 16 2.61 790 36,700 2017-06-26 15:15:00 CNNG1
02392360 SHOAL CREEK AT GA 108, NEAR WALESKA, GA 14 2.57 54.9 2,510 2017-06-26 15:15:00 WALG1
02392780 LITTLE RIVER AT GA 5, NEAR WOODSTOCK, GA 11 1.40 137 16,100 2017-06-26 15:15:00 WODG1
02392920 NOONDAY CR US CHASTAIN MEADOWS PKWY, MARIETTA, GA 11 2.55

 

  2017-06-26 15:15:00 NBSG1
02392950 NOONDAY CREEK AT HAWKINS STORE RD, NR WOODSTOCK,GA 11 1.21 31.1 11,900 2017-06-26 15:30:00 NDYG1
02392975 NOONDAY CREEK AT SHALLOWFORD ROAD, NR WOODSTOCK,GA 10 1.95 38.3 11,400 2017-06-26 15:30:00 NOOG1
02393377 BUTLER CREEK AT MACK DOBBS ROAD, NR KENNESAW, GA 11 2.49 3.55 6,760 2017-06-26 15:00:00 BTCG1
02393419 ALLATOONA CREEK AT STILESBORO RD, NEAR ACWORTH, GA 13 5.18 10.8 16,600 2017-06-26 15:15:00 MAHG1
02393500 ALLATOONA LAKE NEAR CARTERSVILLE, GA   840.11

 

  2017-06-26 15:15:00 CVLG1
02393501 ETOWAH RIVER ALLATOONA DAM TW, ABV CARTERSVILLE,GA   691.38

 

  2017-06-26 15:15:00  
02394000 ETOWAH RIVER AT ALLATOONA DAM, ABV CARTERSVILLE,GA   2.06 2,230 40,400 2017-06-26 15:45:00 ETWG1
02394670 ETOWAH RIVER AT GA 61, NEAR CARTERSVILLE, GA 18 7.74 2,380 55,000 2017-06-26 15:00:00 CTVG1
02394682 RICHLAND CREEK AT OLD DALLAS RD, NEAR DALLAS, GA 8 1.71

 

  2017-06-26 15:30:00 RCDG1
02394820 EUHARLEE CREEK AT US 278, AT ROCKMART, GA 9 2.19 35.8 7,000 2017-06-26 15:30:00 RKMG1
02395000 ETOWAH RIVER NEAR KINGSTON,GA 20 5.76 2,640 52,000 2017-06-26 16:00:00 KGTG1
02395120 TWO RUN CREEK NEAR KINGSTON, GA 8 1.24 13.2 4,600 2017-06-26 16:00:00 KTRG1
02395980 ETOWAH RIVER AT GA 1 LOOP, NEAR ROME, GA 32 15.04 2,680 55,000 2017-06-26 16:00:00 ROEG1
02395996 ETOWAH RIVER AT COOSA VALLEY F.G., AT ROME, GA 32 8.17

 

  2017-06-26 16:00:00 ERRG1
02396000 ETOWAH RIVER AT ROME, GA.  

 

1,070 55,000 1997-10-01 00:45:00  
02397000 COOSA RIVER (MAYO'S BAR) NEAR ROME, GA 24 12.55 5,490 100,000 2017-06-26 15:45:00 RMBG1
02397410 CEDAR CREEK AT GA AVE, AT CEDARTOWN, GA 15 3.50 42.7 16,500 2017-06-26 15:30:00 CTWG1
02397500 CEDAR CREEK NEAR CEDARTOWN, GA 11 1.26 132 17,000 2017-06-26 15:45:00 CCDG1
02397530 COOSA RIVER AT STATE LINE, AL/GA   14.23 ***   2017-06-26 15:45:00  
02398000 CHATTOOGA RIVER AT SUMMERVILLE, GA 14 2.92 187 30,100 2017-06-26 15:45:00 SUMG1
02411930 TALLAPOOSA RIVER BELOW TALLAPOOSA, GEORGIA 16 2.32 286 6,090 2017-06-26 15:00:00 TLAG1
02413000 LITTLE TALLAPOOSA RIVER AT US 27, AT CARROLLTON,GA 18 3.24 119 6,210 2017-06-26 15:00:00 CANG1
02413210 LITTLE TALLAPOOSA R AT GA 100, NEAR BOWDON, GA 17 5.02 401 4,310 2017-06-26 15:00:00 BWNG1
03544970 HIWASSEE RIVER AT RIVERSIDE DR, NR HIAWASSEE, GA 10 3.04 83.1 2,610 2017-06-26 15:45:00 HWEG1
03550500 NOTTELY RIVER NEAR BLAIRSVILLE, GA 13 1.97 135 12,900 2017-06-26 15:45:00 BRVG1
03558000 TOCCOA RIVER NEAR DIAL, GA   1.62 354 28,000 2017-06-26 15:30:00  
03566700 SOUTH CHICKAMAUGA CREEK AT RINGGOLD, GA 15 4.14 74.7 33,400 2017-06-26 15:30:00 SCKG1
03567340 WEST CHICKAMAUGA CR AT GA 146, NEAR LAKEVIEW, GA 11 2.36 158 7,880 2017-06-26 15:15:00 WCKG1
03568400 CHATTANOOGA CREEK AT GA193, NEAR FLINTSTONE, GA 10 3.33 14.8   2017-06-26 15:30:00 CCFG1
03568933 LOOKOUT CREEK NEAR NEW ENGLAND, GA 12 4.58 133 20,000 2017-06-26 16:00:00 ENGG1
311941081265201 ALTAMAHA RIVER AT US 17 NEAR BRUNSWICK, GA   3.61

 

  2016-10-10 16:45:00  
313838081233701 SOUTH NEWPORT RIVER AT US 17 NR SOUTH NEWPORT, GA   2.81

 

  2016-10-11 16:15:00  
314946081211801 JERICO RIVER AT I-95 NEAR RICHMOND HILL, GA   3.43

 

  2016-10-07 22:00:00